createdAt,value
2018-07-14T00:01:52.842Z,17.60
2018-07-14T00:04:22.146Z,17.60
2018-07-14T00:06:50.713Z,17.60
2018-07-14T00:09:19.411Z,17.60
2018-07-14T00:11:48.642Z,17.60
2018-07-14T00:14:17.910Z,17.50
2018-07-14T00:16:46.461Z,17.40
2018-07-14T00:21:43.277Z,17.40
2018-07-14T00:24:11.839Z,17.30
2018-07-14T00:26:40.422Z,17.30
2018-07-14T00:29:09.451Z,17.20
2018-07-14T00:31:38.067Z,17.10
2018-07-14T00:36:34.978Z,17.10
2018-07-14T00:39:04.551Z,17.10
2018-07-14T00:41:33.181Z,17.10
2018-07-14T00:44:01.721Z,17.10
2018-07-14T00:46:30.304Z,17.10
2018-07-14T00:51:27.075Z,17.00
2018-07-14T00:53:55.663Z,16.90
2018-07-14T00:56:24.242Z,16.70
2018-07-14T00:58:52.831Z,16.80
2018-07-14T01:01:21.410Z,16.80
2018-07-14T01:03:49.994Z,16.90
2018-07-14T01:06:18.585Z,16.80
2018-07-14T01:08:47.673Z,16.60
2018-07-14T01:11:16.258Z,16.50
2018-07-14T01:13:44.845Z,16.40
2018-07-14T01:16:13.905Z,16.40
2018-07-14T01:18:42.470Z,16.40
2018-07-14T01:21:11.056Z,16.20
2018-07-14T01:23:39.692Z,16.10
2018-07-14T01:26:08.270Z,16.10
2018-07-14T01:31:05.084Z,16.00
2018-07-14T01:33:33.628Z,16.00
2018-07-14T01:36:02.125Z,16.00
2018-07-14T01:38:30.658Z,16.00
2018-07-14T01:40:59.176Z,16.10
2018-07-14T01:43:27.709Z,16.10
2018-07-14T01:45:56.226Z,16.10
2018-07-14T01:50:52.941Z,16.10
2018-07-14T01:53:21.469Z,16.10
2018-07-14T01:58:18.496Z,16.30
2018-07-14T02:00:47.002Z,16.30
2018-07-14T02:03:15.553Z,16.40
2018-07-14T02:05:44.048Z,16.30
2018-07-14T02:08:12.565Z,16.20
2018-07-14T02:10:41.069Z,16.10
2018-07-14T02:13:09.627Z,15.90
2018-07-14T02:15:38.133Z,15.90
2018-07-14T02:18:06.665Z,15.90
2018-07-14T02:20:35.173Z,16.00
2018-07-14T02:30:28.504Z,15.70
2018-07-14T02:32:57.034Z,15.70
2018-07-14T02:35:25.517Z,15.80
2018-07-14T02:37:54.641Z,15.80
2018-07-14T02:40:23.173Z,15.80
2018-07-14T02:42:51.718Z,15.90
2018-07-14T02:47:48.534Z,15.90
2018-07-14T02:50:17.073Z,15.90
2018-07-14T02:52:45.628Z,15.80
2018-07-14T02:55:14.133Z,15.70
2018-07-14T03:00:10.853Z,15.50
2018-07-14T03:02:39.398Z,15.40
2018-07-14T03:05:07.914Z,15.40
2018-07-14T03:07:36.480Z,15.40
2018-07-14T03:10:05.001Z,15.60
2018-07-14T03:12:33.549Z,15.70
2018-07-14T03:15:02.066Z,15.80
2018-07-14T03:17:30.601Z,15.70
2018-07-14T03:19:59.093Z,15.70
2018-07-14T03:22:27.628Z,15.60
2018-07-14T03:24:56.194Z,15.80
2018-07-14T03:27:24.708Z,15.80
2018-07-14T03:29:53.871Z,15.80
2018-07-14T03:32:22.381Z,15.80
2018-07-14T03:37:20.705Z,15.60
2018-07-14T03:39:49.261Z,15.70
2018-07-14T03:47:14.800Z,15.60
2018-07-14T03:49:43.376Z,15.50
2018-07-14T03:52:11.933Z,15.50
2018-07-14T03:54:40.546Z,15.50
2018-07-14T03:57:09.115Z,15.50
2018-07-14T03:59:39.564Z,15.60
2018-07-14T04:02:08.111Z,15.70
2018-07-14T04:04:36.663Z,15.70
2018-07-14T04:07:05.218Z,15.80
2018-07-14T04:12:02.618Z,15.90
2018-07-14T04:14:31.174Z,15.80
2018-07-14T04:17:00.996Z,15.80
2018-07-14T04:21:57.908Z,15.90
2018-07-14T04:24:26.473Z,16.00
2018-07-14T04:26:54.996Z,16.00
2018-07-14T04:29:24.104Z,16.00
2018-07-14T04:31:52.668Z,16.10
2018-07-14T04:34:21.225Z,16.10
2018-07-14T04:36:49.759Z,16.20
2018-07-14T04:39:18.310Z,16.20
2018-07-14T04:41:46.899Z,16.30
2018-07-14T04:44:15.445Z,16.30
2018-07-14T04:46:43.987Z,16.40
2018-07-14T04:49:13.021Z,16.40
2018-07-14T04:51:42.155Z,16.20
2018-07-14T04:54:10.718Z,16.20
2018-07-14T04:56:39.286Z,16.20
2018-07-14T05:01:36.041Z,16.30
2018-07-14T05:06:33.734Z,16.50
2018-07-14T05:09:02.345Z,16.60
2018-07-14T05:11:30.899Z,16.70
2018-07-14T05:14:00.125Z,16.90
2018-07-14T05:16:28.659Z,17.00
2018-07-14T05:18:57.217Z,17.10
2018-07-14T05:21:25.768Z,17.30
2018-07-14T05:23:54.374Z,17.60
2018-07-14T05:26:22.901Z,17.80
2018-07-14T05:31:19.648Z,18.80
2018-07-14T05:33:48.234Z,19.50
2018-07-14T05:41:13.128Z,21.50
2018-07-14T05:43:41.657Z,21.20
2018-07-14T05:48:38.413Z,20.60
2018-07-14T05:53:35.342Z,21.00
2018-07-14T05:56:03.897Z,20.60
2018-07-14T05:58:32.415Z,20.30
2018-07-14T06:01:00.960Z,20.10
2018-07-14T06:03:29.507Z,20.10
2018-07-14T06:05:58.089Z,20.60
2018-07-14T06:08:26.586Z,21.70
2018-07-14T06:13:23.320Z,22.10
2018-07-14T06:15:51.857Z,21.50
2018-07-14T06:18:20.382Z,21.70
2018-07-14T06:20:48.925Z,21.70
2018-07-14T06:23:17.537Z,21.70
2018-07-14T06:25:46.097Z,21.50
2018-07-14T06:28:14.658Z,21.20
2018-07-14T06:30:43.264Z,21.10
2018-07-14T06:33:12.608Z,21.00
2018-07-14T06:35:41.190Z,21.00
2018-07-14T06:38:09.735Z,20.80
2018-07-14T06:40:38.366Z,20.80
2018-07-14T06:43:07.652Z,20.80
2018-07-14T06:45:36.238Z,20.80
2018-07-14T06:48:04.783Z,20.80
2018-07-14T06:50:34.293Z,20.90
2018-07-14T06:53:03.027Z,20.80
2018-07-14T06:55:31.660Z,21.00
2018-07-14T06:58:00.227Z,21.20
2018-07-14T07:00:29.276Z,21.50
2018-07-14T07:02:57.834Z,21.90
2018-07-14T07:05:26.390Z,22.30
2018-07-14T07:07:54.920Z,22.50
2018-07-14T07:10:23.480Z,22.70
2018-07-14T07:12:52.022Z,23.00
2018-07-14T07:15:20.608Z,23.20
2018-07-14T07:17:49.152Z,23.40
2018-07-14T07:20:17.702Z,23.70
2018-07-14T07:22:46.264Z,24.10
2018-07-14T07:27:43.024Z,24.90
2018-07-14T07:32:40.018Z,24.80
2018-07-14T07:35:09.084Z,25.00
2018-07-14T07:42:34.035Z,25.80
2018-07-14T07:45:03.427Z,25.30
2018-07-14T07:47:31.925Z,25.50
2018-07-14T07:50:00.480Z,25.50
2018-07-14T07:57:25.393Z,25.70
2018-07-14T07:59:53.954Z,25.90
2018-07-14T08:02:22.494Z,25.60
2018-07-14T08:07:19.290Z,25.70
2018-07-14T08:09:47.835Z,25.70
2018-07-14T08:14:44.593Z,25.50
2018-07-14T08:19:41.342Z,25.30
2018-07-14T08:22:09.904Z,25.40
2018-07-14T08:24:38.420Z,25.30
2018-07-14T08:29:35.857Z,25.40
2018-07-14T08:32:04.417Z,25.40
2018-07-14T08:34:32.956Z,25.50
2018-07-14T08:39:29.820Z,26.00
2018-07-14T08:44:26.581Z,25.90
2018-07-14T08:49:23.461Z,25.80
2018-07-14T08:51:52.002Z,25.40
2018-07-14T08:54:20.514Z,25.50
2018-07-14T08:59:17.340Z,25.60
2018-07-14T09:01:45.953Z,25.70
2018-07-14T09:04:14.492Z,25.80
2018-07-14T09:06:43.092Z,25.80
2018-07-14T09:09:12.320Z,25.90
2018-07-14T09:16:38.529Z,25.90
2018-07-14T09:19:07.074Z,25.70
2018-07-14T09:24:04.593Z,25.70
2018-07-14T09:26:33.150Z,25.90
2018-07-14T09:29:01.677Z,25.90
2018-07-14T09:31:30.295Z,25.90
2018-07-14T09:36:27.872Z,26.30
2018-07-14T09:38:57.121Z,26.40
2018-07-14T09:41:25.673Z,26.40
2018-07-14T09:43:54.269Z,26.30
2018-07-14T09:46:22.809Z,26.40
2018-07-14T09:48:51.902Z,26.20
2018-07-14T09:51:21.410Z,26.30
2018-07-14T09:53:51.476Z,26.50
2018-07-14T09:56:19.988Z,26.60
2018-07-14T09:58:49.098Z,26.70
2018-07-14T10:01:17.601Z,26.80
2018-07-14T10:03:47.101Z,26.90
2018-07-14T10:06:15.795Z,26.80
2018-07-14T10:11:12.457Z,26.90
2018-07-14T10:13:41.019Z,26.90
2018-07-14T10:16:10.265Z,27.00
2018-07-14T10:18:39.652Z,27.10
2018-07-14T10:23:36.409Z,27.10
2018-07-14T10:28:33.800Z,27.30
2018-07-14T10:31:02.320Z,27.40
2018-07-14T10:33:30.895Z,27.50
2018-07-14T10:35:59.461Z,27.60
2018-07-14T10:38:27.986Z,27.60
2018-07-14T10:40:56.933Z,27.70
2018-07-14T10:43:25.521Z,27.90
2018-07-14T10:45:54.037Z,28.00
2018-07-14T10:48:22.577Z,27.70
2018-07-14T10:50:51.100Z,27.30
2018-07-14T10:53:19.655Z,27.20
2018-07-14T10:55:48.170Z,27.10
2018-07-14T10:58:16.785Z,26.80
2018-07-14T11:00:45.245Z,26.80
2018-07-14T11:03:14.111Z,26.80
2018-07-14T11:05:42.641Z,27.00
2018-07-14T11:10:39.364Z,27.60
2018-07-14T11:13:07.946Z,27.80
2018-07-14T11:15:36.512Z,28.00
2018-07-14T11:18:05.050Z,28.00
2018-07-14T11:20:33.692Z,28.00
2018-07-14T11:23:02.284Z,28.00
2018-07-14T11:25:30.846Z,27.90
2018-07-14T11:27:59.383Z,27.90
2018-07-14T11:30:27.941Z,27.80
2018-07-14T11:32:56.518Z,27.80
2018-07-14T11:35:25.077Z,27.90
2018-07-14T11:37:53.682Z,28.00
2018-07-14T11:40:22.214Z,28.00
2018-07-14T11:42:50.758Z,28.30
2018-07-14T11:45:19.328Z,28.50
2018-07-14T11:47:47.938Z,28.70
2018-07-14T11:50:16.460Z,29.00
2018-07-14T11:55:13.254Z,29.00
2018-07-14T11:57:41.835Z,29.00
2018-07-14T12:00:10.395Z,28.90
2018-07-14T12:02:38.985Z,28.90
2018-07-14T12:07:36.090Z,29.00
2018-07-14T12:10:05.229Z,29.00
2018-07-14T12:15:02.037Z,29.00
2018-07-14T12:17:30.942Z,28.80
2018-07-14T12:19:59.461Z,28.80
2018-07-14T12:22:28.147Z,28.80
2018-07-14T12:24:56.688Z,28.70
2018-07-14T12:27:25.298Z,28.90
2018-07-14T12:29:54.489Z,28.80
2018-07-14T12:32:23.241Z,28.70
2018-07-14T12:34:51.820Z,28.80
2018-07-14T12:37:20.370Z,29.10
2018-07-14T12:39:49.128Z,29.30
2018-07-14T12:42:17.681Z,29.30
2018-07-14T12:44:46.244Z,29.40
2018-07-14T12:47:15.425Z,29.40
2018-07-14T12:49:43.990Z,29.50
2018-07-14T12:52:12.574Z,29.80
2018-07-14T12:54:41.158Z,30.00
2018-07-14T12:57:09.693Z,30.30
2018-07-14T12:59:39.604Z,30.30
2018-07-14T13:02:08.144Z,30.30
2018-07-14T13:04:36.713Z,30.10
2018-07-14T13:07:05.362Z,29.80
2018-07-14T13:09:33.939Z,29.60
2018-07-14T13:12:02.512Z,29.30
2018-07-14T13:17:00.114Z,28.50
2018-07-14T13:19:28.682Z,28.30
2018-07-14T13:21:57.273Z,28.30
2018-07-14T13:24:25.831Z,28.30
2018-07-14T13:26:54.358Z,28.30
2018-07-14T13:29:22.948Z,28.30
2018-07-14T13:31:51.508Z,28.50
2018-07-14T13:34:20.069Z,28.50
2018-07-14T13:36:48.705Z,28.50
2018-07-14T13:39:17.298Z,28.60
2018-07-14T13:41:46.602Z,28.70
2018-07-14T13:44:15.836Z,28.90
2018-07-14T13:46:44.344Z,28.90
2018-07-14T13:49:12.917Z,29.10
2018-07-14T13:54:09.721Z,28.90
2018-07-14T13:56:38.431Z,29.00
2018-07-14T13:59:07.025Z,28.90
2018-07-14T14:01:35.564Z,28.70
2018-07-14T14:04:04.158Z,28.70
2018-07-14T14:06:33.422Z,28.50
2018-07-14T14:11:30.218Z,28.30
2018-07-14T14:13:58.785Z,28.30
2018-07-14T14:16:27.317Z,28.40
2018-07-14T14:18:55.882Z,28.50
2018-07-14T14:21:24.456Z,28.90
2018-07-14T14:23:53.039Z,29.00
2018-07-14T14:26:21.549Z,29.10
2018-07-14T14:28:50.430Z,29.00
2018-07-14T14:31:18.950Z,29.00
2018-07-14T14:33:47.511Z,29.00
2018-07-14T14:36:16.677Z,28.90
2018-07-14T14:38:45.852Z,28.90
2018-07-14T14:41:14.409Z,29.00
2018-07-14T14:43:43.490Z,29.10
2018-07-14T14:46:12.030Z,29.30
2018-07-14T14:48:40.721Z,29.30
2018-07-14T14:51:09.628Z,29.40
2018-07-14T14:53:38.149Z,29.30
2018-07-14T14:56:07.335Z,29.20
2018-07-14T14:58:35.903Z,29.00
2018-07-14T15:01:04.493Z,28.90
2018-07-14T15:03:33.053Z,28.70
2018-07-14T15:06:01.609Z,28.60
2018-07-14T15:08:30.141Z,28.50
2018-07-14T15:10:58.885Z,28.70
2018-07-14T15:13:28.119Z,28.70
2018-07-14T15:15:56.663Z,28.80
2018-07-14T15:18:25.214Z,28.90
2018-07-14T15:20:54.396Z,29.00
2018-07-14T15:23:22.975Z,29.00
2018-07-14T15:25:52.121Z,29.00
2018-07-14T15:28:21.525Z,29.00
2018-07-14T15:30:50.814Z,28.90
2018-07-14T15:35:47.732Z,29.10
2018-07-14T15:38:16.270Z,29.20
2018-07-14T15:40:44.854Z,28.90
2018-07-14T15:45:42.941Z,28.90
2018-07-14T15:48:11.489Z,29.10
2018-07-14T15:50:40.054Z,29.00
2018-07-14T15:53:08.561Z,29.00
2018-07-14T15:55:37.737Z,29.00
2018-07-14T15:58:06.758Z,29.00
2018-07-14T16:00:35.877Z,28.90
2018-07-14T16:03:04.508Z,28.80
2018-07-14T16:05:33.041Z,28.90
2018-07-14T16:08:01.637Z,28.90
2018-07-14T16:10:30.669Z,29.00
2018-07-14T16:12:59.799Z,28.90
2018-07-14T16:15:28.654Z,28.70
2018-07-14T16:17:57.242Z,28.50
2018-07-14T16:20:26.267Z,28.60
2018-07-14T16:22:55.816Z,28.40
2018-07-14T16:25:24.352Z,28.50
2018-07-14T16:27:52.925Z,28.50
2018-07-14T16:30:22.399Z,28.60
2018-07-14T16:32:50.997Z,28.70
2018-07-14T16:35:19.566Z,28.60
2018-07-14T16:37:48.144Z,28.60
2018-07-14T16:40:16.698Z,28.50
2018-07-14T16:42:45.312Z,28.70
2018-07-14T16:45:13.878Z,28.80
2018-07-14T16:52:38.848Z,28.80
2018-07-14T16:55:07.457Z,28.80
2018-07-14T16:57:37.118Z,28.70
2018-07-14T17:00:05.774Z,28.60
2018-07-14T17:02:34.732Z,28.60
2018-07-14T17:05:03.269Z,28.50
2018-07-14T17:10:00.174Z,28.30
2018-07-14T17:12:28.721Z,28.20
2018-07-14T17:14:57.245Z,28.10
2018-07-14T17:17:25.790Z,28.00
2018-07-14T17:22:23.094Z,27.90
2018-07-14T17:24:52.360Z,27.80
2018-07-14T17:29:49.109Z,27.90
2018-07-14T17:34:45.907Z,27.90
2018-07-14T17:37:14.448Z,27.80
2018-07-14T17:39:42.935Z,27.80
2018-07-14T17:42:11.518Z,27.70
2018-07-14T17:44:40.043Z,27.70
2018-07-14T17:47:08.634Z,27.80
2018-07-14T17:49:37.138Z,27.70
2018-07-14T17:52:05.868Z,27.60
2018-07-14T17:54:34.275Z,27.40
2018-07-14T17:57:03.502Z,27.40
2018-07-14T17:59:32.016Z,27.30
2018-07-14T18:04:28.745Z,27.10
2018-07-14T18:06:57.285Z,27.10
2018-07-14T18:09:25.776Z,27.10
2018-07-14T18:11:54.389Z,26.90
2018-07-14T18:14:22.898Z,26.70
2018-07-14T18:16:51.481Z,26.60
2018-07-14T18:19:20.001Z,26.50
2018-07-14T18:21:48.566Z,26.50
2018-07-14T18:26:45.510Z,26.20
2018-07-14T18:29:14.065Z,26.10
2018-07-14T18:31:42.615Z,26.20
2018-07-14T18:34:11.179Z,26.00
2018-07-14T18:36:39.718Z,25.80
2018-07-14T18:39:08.927Z,25.70
2018-07-14T18:41:37.598Z,25.70
2018-07-14T18:44:06.183Z,25.50
2018-07-14T18:46:34.710Z,25.30
2018-07-14T18:49:03.302Z,25.10
2018-07-14T18:54:00.849Z,24.80
2018-07-14T18:56:29.385Z,24.70
2018-07-14T18:58:57.967Z,24.60
2018-07-14T19:01:26.500Z,24.40
2018-07-14T19:03:55.060Z,24.20
2018-07-14T19:06:23.617Z,24.20
2018-07-14T19:08:52.194Z,24.10
2018-07-14T19:11:20.732Z,24.00
2018-07-14T19:13:49.397Z,23.90
2018-07-14T19:16:17.955Z,23.80
2018-07-14T19:18:46.998Z,23.60
2018-07-14T19:21:15.529Z,23.50
2018-07-14T19:23:44.080Z,23.40
2018-07-14T19:26:12.695Z,23.40
2018-07-14T19:28:41.165Z,23.30
2018-07-14T19:31:10.246Z,23.20
2018-07-14T19:33:40.282Z,23.10
2018-07-14T19:38:37.526Z,23.00
2018-07-14T19:41:06.045Z,22.70
2018-07-14T19:46:03.645Z,22.60
2018-07-14T19:48:32.890Z,22.50
2018-07-14T19:51:01.482Z,22.50
2018-07-14T19:53:30.024Z,22.60
2018-07-14T19:55:58.669Z,22.60
2018-07-14T19:58:27.119Z,22.60
2018-07-14T20:00:55.671Z,22.60
2018-07-14T20:03:24.208Z,22.60
2018-07-14T20:05:53.514Z,22.60
2018-07-14T20:08:22.030Z,22.80
2018-07-14T20:10:51.527Z,22.80
2018-07-14T20:13:20.038Z,22.70
2018-07-14T20:15:48.589Z,22.70
2018-07-14T20:18:17.087Z,22.60
2018-07-14T20:20:45.660Z,22.60
2018-07-14T20:23:14.254Z,22.60
2018-07-14T20:25:43.978Z,22.70
2018-07-14T20:28:12.510Z,22.70
2018-07-14T20:30:41.574Z,22.60
2018-07-14T20:33:10.108Z,22.50
2018-07-14T20:35:39.958Z,22.50
2018-07-14T20:38:08.512Z,22.60
2018-07-14T20:40:37.389Z,22.50
2018-07-14T20:43:05.948Z,22.50
2018-07-14T20:45:35.077Z,22.30
2018-07-14T20:48:04.411Z,22.20
2018-07-14T20:50:32.961Z,22.10
2018-07-14T20:53:01.865Z,21.90
2018-07-14T20:55:30.405Z,21.80
2018-07-14T20:58:00.043Z,21.90
2018-07-14T21:02:56.817Z,21.70
2018-07-14T21:05:25.577Z,21.60
2018-07-14T21:07:54.089Z,21.60
2018-07-14T21:10:22.678Z,21.50
2018-07-14T21:12:51.178Z,21.50
2018-07-14T21:15:19.748Z,21.40
2018-07-14T21:17:48.306Z,21.40
2018-07-14T21:22:45.793Z,21.10
2018-07-14T21:25:14.332Z,21.10
2018-07-14T21:27:42.822Z,21.00
2018-07-14T21:30:12.100Z,20.80
2018-07-14T21:32:40.621Z,20.90
2018-07-14T21:35:09.156Z,20.90
2018-07-14T21:37:37.660Z,20.80
2018-07-14T21:40:06.307Z,20.70
2018-07-14T21:42:34.763Z,20.70
2018-07-14T21:47:31.496Z,20.50
2018-07-14T21:50:00.067Z,20.40
2018-07-14T21:52:28.589Z,20.40
2018-07-14T21:57:25.347Z,20.40
2018-07-14T22:02:22.365Z,20.10
2018-07-14T22:04:50.953Z,19.90
2018-07-14T22:07:19.593Z,19.80
2018-07-14T22:09:48.115Z,19.80
2018-07-14T22:12:16.634Z,19.70
2018-07-14T22:14:45.286Z,19.60
2018-07-14T22:17:13.850Z,19.60
2018-07-14T22:19:42.359Z,19.50
2018-07-14T22:22:10.933Z,19.40
2018-07-14T22:24:39.481Z,19.40
2018-07-14T22:29:36.216Z,19.40
2018-07-14T22:32:04.807Z,19.30
2018-07-14T22:34:33.341Z,19.30
2018-07-14T22:37:01.903Z,19.30
2018-07-14T22:39:30.414Z,19.30
2018-07-14T22:41:58.997Z,19.30
2018-07-14T22:44:27.528Z,19.20
2018-07-14T22:49:24.276Z,19.20
2018-07-14T22:51:52.816Z,19.30
2018-07-14T22:54:21.354Z,19.20
2018-07-14T22:59:18.099Z,19.20
2018-07-14T23:01:46.661Z,19.10
2018-07-14T23:04:15.183Z,19.10
2018-07-14T23:09:11.940Z,19.20
2018-07-14T23:14:09.495Z,19.00
2018-07-14T23:16:38.078Z,18.90
2018-07-14T23:19:07.951Z,18.80
2018-07-14T23:21:36.978Z,18.70
2018-07-14T23:24:05.614Z,18.60
2018-07-14T23:26:34.145Z,18.50
2018-07-14T23:29:02.889Z,18.50
2018-07-14T23:31:31.441Z,18.50
2018-07-14T23:33:59.966Z,18.60
2018-07-14T23:36:28.506Z,18.50
2018-07-14T23:38:57.032Z,18.60
2018-07-14T23:41:25.621Z,18.50
2018-07-14T23:43:54.410Z,18.40
2018-07-14T23:46:23.121Z,18.50
2018-07-14T23:48:51.646Z,18.50
2018-07-14T23:53:48.534Z,18.60
2018-07-14T23:56:17.814Z,18.50
2018-07-14T23:58:46.318Z,18.50
